Time,TemperatureF,DewpointF,PressureIn,WindDirection,WindDirectionDegrees,WindSpeedMPH,WindSpeedGustMPH,Humidity,HourlyPrecipIn,Conditions,Clouds,dailyrainin,SoftwareType,DateUTC
2013-05-18 00:01:00,49.0,48.0,-100.00,WNW,295,1.0,3.0,96,-99.99,,,-99.99,,2013-05-18 07:01:00,
2013-05-18 00:11:00,48.0,47.0,-100.00,ESE,105,1.0,2.0,96,-99.99,,,-99.99,,2013-05-18 07:11:00,
2013-05-18 00:21:00,48.0,47.0,-100.00,SE,132,1.0,2.0,96,-99.99,,,-99.99,,2013-05-18 07:21:00,
2013-05-18 00:31:00,49.0,48.0,-100.00,ESE,116,1.0,2.0,96,-99.99,,,-99.99,,2013-05-18 07:31:00,
2013-05-18 00:42:00,49.0,48.0,-100.00,SSE,154,0.0,2.0,96,-99.99,,,-99.99,,2013-05-18 07:42:00,
2013-05-18 00:52:00,49.0,48.0,-100.00,SE,145,1.0,2.0,96,-99.99,,,-99.99,,2013-05-18 07:52:00,
2013-05-18 01:01:00,49.0,48.0,-100.00,SE,132,1.0,2.0,96,-99.99,,,-99.99,,2013-05-18 08:01:00,
2013-05-18 01:11:00,49.0,48.0,-100.00,ENE,77,0.0,1.0,96,-99.99,,,-99.99,,2013-05-18 08:11:00,
2013-05-18 01:21:00,49.0,48.0,-100.00,SSE,147,0.0,1.0,96,-99.99,,,-99.99,,2013-05-18 08:21:00,
2013-05-18 01:32:00,49.0,48.0,-100.00,SE,135,0.0,2.0,96,-99.99,,,-99.99,,2013-05-18 08:32:00,
2013-05-18 01:42:00,49.0,48.0,-100.00,NW,312,1.0,3.0,96,-99.99,,,-99.99,,2013-05-18 08:42:00,
2013-05-18 01:50:00,49.0,48.0,-100.00,NW,314,5.0,7.0,96,-99.99,,,-99.99,,2013-05-18 08:50:00,
2013-05-18 01:52:00,49.0,48.0,-100.00,NW,307,4.0,6.0,96,-99.99,,,-99.99,,2013-05-18 08:52:00,
2013-05-18 02:02:00,49.0,48.0,-100.00,NW,304,5.0,8.0,96,-99.99,,,-99.99,,2013-05-18 09:02:00,
2013-05-18 02:11:00,49.0,48.0,-100.00,WNW,302,5.0,6.0,96,-99.99,,,-99.99,,2013-05-18 09:11:00,
2013-05-18 02:22:00,49.0,48.0,-100.00,NW,314,5.0,7.0,96,-99.99,,,-99.99,,2013-05-18 09:22:00,
2013-05-18 02:32:00,49.0,48.0,-100.00,NW,314,5.0,7.0,96,-99.99,,,-99.99,,2013-05-18 09:32:00,
2013-05-18 02:43:00,49.0,48.0,-100.00,NW,314,5.0,7.0,96,-99.99,,,-99.99,,2013-05-18 09:43:00,
2013-05-18 03:02:00,49.0,48.0,-100.00,WNW,282,3.0,4.0,95,-99.99,,,-99.99,,2013-05-18 10:02:00,
2013-05-18 03:12:00,49.0,48.0,-100.00,West,272,4.0,7.0,95,-99.99,,,-99.99,,2013-05-18 10:12:00,
2013-05-18 03:22:00,49.0,47.0,-100.00,West,274,2.0,4.0,93,-99.99,,,-99.99,,2013-05-18 10:22:00,
2013-05-18 03:33:00,49.0,47.0,-100.00,NW,313,3.0,4.0,92,-99.99,,,-99.99,,2013-05-18 10:33:00,
2013-05-18 03:42:00,49.0,47.0,-100.00,NW,312,4.0,5.0,92,-99.99,,,-99.99,,2013-05-18 10:42:00,
2013-05-18 03:52:00,49.0,46.0,-100.00,WNW,295,3.0,5.0,91,-99.99,,,-99.99,,2013-05-18 10:52:00,
2013-05-18 04:02:00,49.0,46.0,-100.00,NW,308,4.0,6.0,90,-99.99,,,-99.99,,2013-05-18 11:02:00,
2013-05-18 04:12:00,49.0,46.0,-100.00,NW,308,4.0,6.0,90,-99.99,,,-99.99,,2013-05-18 11:12:00,
2013-05-18 04:22:00,49.0,46.0,-100.00,WNW,292,5.0,6.0,91,-99.99,,,-99.99,,2013-05-18 11:22:00,
2013-05-18 04:33:00,49.0,46.0,-100.00,WNW,292,5.0,6.0,91,-99.99,,,-99.99,,2013-05-18 11:33:00,
2013-05-18 04:42:00,49.0,46.0,-100.00,WNW,296,3.0,5.0,90,-99.99,,,-99.99,,2013-05-18 11:42:00,
2013-05-18 04:52:00,49.0,46.0,-100.00,WNW,286,4.0,5.0,90,-99.99,,,-99.99,,2013-05-18 11:52:00,
2013-05-18 05:01:00,49.0,46.0,-100.00,WNW,289,5.0,7.0,90,-99.99,,,-99.99,,2013-05-18 12:01:00,
2013-05-18 05:12:00,49.0,46.0,-100.00,NW,306,5.0,8.0,90,-99.99,,,-99.99,,2013-05-18 12:12:00,
2013-05-18 05:23:00,49.0,46.0,-100.00,WNW,293,4.0,5.0,90,-99.99,,,-99.99,,2013-05-18 12:23:00,
2013-05-18 05:30:00,48.0,47.0,-100.00,WNW,300,6.0,8.0,95,-99.99,,,-99.99,,2013-05-18 12:30:00,
2013-05-18 05:33:00,49.0,46.0,-100.00,WNW,301,5.0,6.0,91,-99.99,,,-99.99,,2013-05-18 12:33:00,
2013-05-18 05:41:00,49.0,47.0,-100.00,WNW,301,5.0,7.0,93,-99.99,,,-99.99,,2013-05-18 12:41:00,
2013-05-18 05:51:00,49.0,47.0,-100.00,NW,309,6.0,8.0,94,-99.99,,,-99.99,,2013-05-18 12:51:00,
2013-05-18 06:01:00,48.0,47.0,-100.00,WNW,300,6.0,8.0,95,-99.99,,,-99.99,,2013-05-18 13:01:00,
2013-05-18 06:11:00,48.0,47.0,-100.00,WNW,300,6.0,8.0,95,-99.99,,,-99.99,,2013-05-18 13:11:00,
2013-05-18 06:21:00,48.0,47.0,-100.00,WNW,300,6.0,8.0,95,-99.99,,,-99.99,,2013-05-18 13:21:00,
2013-05-18 08:43:00,52.0,47.0,-100.00,West,281,3.0,7.0,84,-99.99,,,-99.99,,2013-05-18 15:43:00,
2013-05-18 08:50:00,53.0,47.0,-100.00,West,279,7.0,11.0,80,-99.99,,,-99.99,,2013-05-18 15:50:00,
2013-05-18 08:53:00,53.0,48.0,-100.00,WNW,297,4.0,8.0,82,-99.99,,,-99.99,,2013-05-18 15:53:00,
2013-05-18 09:02:00,53.0,48.0,-100.00,WNW,297,4.0,8.0,82,-99.99,,,-99.99,,2013-05-18 16:02:00,
2013-05-18 09:12:00,53.0,47.0,-100.00,West,277,7.0,11.0,81,-99.99,,,-99.99,,2013-05-18 16:12:00,
2013-05-18 09:22:00,53.0,47.0,-100.00,West,279,7.0,11.0,80,-99.99,,,-99.99,,2013-05-18 16:22:00,
2013-05-18 09:32:00,53.0,47.0,-100.00,West,279,7.0,11.0,80,-99.99,,,-99.99,,2013-05-18 16:32:00,
2013-05-18 09:42:00,53.0,47.0,-100.00,West,279,7.0,11.0,80,-99.99,,,-99.99,,2013-05-18 16:42:00,
2013-05-18 10:42:00,58.0,47.0,-100.00,WNW,299,8.0,13.0,66,-99.99,,,-99.99,,2013-05-18 17:42:00,
2013-05-18 10:51:00,58.0,47.0,-100.00,WNW,302,7.0,14.0,66,-99.99,,,-99.99,,2013-05-18 17:51:00,
2013-05-18 11:01:00,59.0,47.0,-100.00,NW,307,6.0,11.0,64,-99.99,,,-99.99,,2013-05-18 18:01:00,
2013-05-18 11:12:00,60.0,47.0,-100.00,NW,308,8.0,12.0,62,-99.99,,,-99.99,,2013-05-18 18:12:00,
2013-05-18 11:21:00,60.0,46.0,-100.00,WNW,295,9.0,14.0,60,-99.99,,,-99.99,,2013-05-18 18:21:00,
2013-05-18 11:31:00,61.0,47.0,-100.00,WNW,301,9.0,16.0,59,-99.99,,,-99.99,,2013-05-18 18:31:00,
2013-05-18 11:42:00,61.0,46.0,-100.00,WNW,303,12.0,18.0,58,-99.99,,,-99.99,,2013-05-18 18:42:00,
2013-05-18 11:51:00,61.0,46.0,-100.00,WNW,296,12.0,18.0,57,-99.99,,,-99.99,,2013-05-18 18:51:00,
2013-05-18 12:00:00,62.0,46.0,-100.00,WNW,295,13.0,18.0,55,-99.99,,,-99.99,,2013-05-18 19:00:00,
2013-05-18 12:01:00,62.0,46.0,-100.00,NW,326,10.0,18.0,55,-99.99,,,-99.99,,2013-05-18 19:01:00,
2013-05-18 12:11:00,62.0,46.0,-100.00,WNW,296,11.0,16.0,56,-99.99,,,-99.99,,2013-05-18 19:11:00,
2013-05-18 12:22:00,62.0,46.0,-100.00,WNW,301,11.0,18.0,55,-99.99,,,-99.99,,2013-05-18 19:22:00,
2013-05-18 12:31:00,62.0,46.0,-100.00,WNW,295,13.0,18.0,55,-99.99,,,-99.99,,2013-05-18 19:31:00,
2013-05-18 12:42:00,62.0,46.0,-100.00,WNW,295,13.0,18.0,55,-99.99,,,-99.99,,2013-05-18 19:42:00,
2013-05-18 12:52:00,62.0,46.0,-100.00,WNW,295,13.0,18.0,55,-99.99,,,-99.99,,2013-05-18 19:52:00,
2013-05-18 15:23:00,66.0,48.0,-100.00,West,278,13.0,18.0,53,-99.99,,,-99.99,,2013-05-18 22:23:00,
2013-05-18 15:33:00,66.0,48.0,-100.00,West,278,13.0,18.0,53,-99.99,,,-99.99,,2013-05-18 22:33:00,
2013-05-18 15:42:00,66.0,49.0,-100.00,West,276,12.0,17.0,54,-99.99,,,-99.99,,2013-05-18 22:42:00,
2013-05-18 15:52:00,66.0,49.0,-100.00,WNW,296,10.0,17.0,55,-99.99,,,-99.99,,2013-05-18 22:52:00,
2013-05-18 16:01:00,66.0,49.0,-100.00,WNW,297,11.0,16.0,55,-99.99,,,-99.99,,2013-05-18 23:01:00,
2013-05-18 16:11:00,66.0,49.0,-100.00,WNW,297,11.0,16.0,55,-99.99,,,-99.99,,2013-05-18 23:11:00,
2013-05-18 16:21:00,66.0,49.0,-100.00,WNW,297,11.0,16.0,55,-99.99,,,-99.99,,2013-05-18 23:21:00,
2013-05-18 16:32:00,65.0,49.0,-100.00,WNW,295,11.0,16.0,57,-99.99,,,-99.99,,2013-05-18 23:32:00,
2013-05-18 16:41:00,65.0,49.0,-100.00,WNW,303,11.0,17.0,57,-99.99,,,-99.99,,2013-05-18 23:41:00,
2013-05-18 16:52:00,65.0,50.0,-100.00,NW,304,12.0,17.0,58,-99.99,,,-99.99,,2013-05-18 23:52:00,
2013-05-18 17:01:00,64.0,49.0,-100.00,WNW,301,10.0,15.0,59,-99.99,,,-99.99,,2013-05-19 00:01:00,
2013-05-18 17:11:00,64.0,50.0,-100.00,WNW,298,10.0,17.0,60,-99.99,,,-99.99,,2013-05-19 00:11:00,
2013-05-18 17:21:00,64.0,50.0,-100.00,WNW,300,10.0,15.0,60,-99.99,,,-99.99,,2013-05-19 00:21:00,
2013-05-18 17:31:00,64.0,50.0,-100.00,WNW,302,10.0,15.0,60,-99.99,,,-99.99,,2013-05-19 00:31:00,
2013-05-18 17:41:00,64.0,50.0,-100.00,WNW,302,10.0,15.0,60,-99.99,,,-99.99,,2013-05-19 00:41:00,
2013-05-18 17:51:00,63.0,50.0,-100.00,WNW,303,9.0,15.0,62,-99.99,,,-99.99,,2013-05-19 00:51:00,
2013-05-18 18:01:00,63.0,50.0,-100.00,WNW,297,9.0,16.0,63,-99.99,,,-99.99,,2013-05-19 01:01:00,
2013-05-18 18:11:00,63.0,50.0,-100.00,WNW,293,9.0,14.0,62,-99.99,,,-99.99,,2013-05-19 01:11:00,
2013-05-18 18:21:00,62.0,49.0,-100.00,WNW,303,11.0,16.0,63,-99.99,,,-99.99,,2013-05-19 01:21:00,
2013-05-18 18:32:00,62.0,49.0,-100.00,WNW,303,10.0,15.0,63,-99.99,,,-99.99,,2013-05-19 01:32:00,
2013-05-18 18:41:00,62.0,49.0,-100.00,NW,304,8.0,13.0,63,-99.99,,,-99.99,,2013-05-19 01:41:00,
2013-05-18 18:52:00,62.0,50.0,-100.00,WNW,298,9.0,12.0,64,-99.99,,,-99.99,,2013-05-19 01:52:00,
2013-05-18 19:01:00,61.0,49.0,-100.00,NW,305,8.0,12.0,65,-99.99,,,-99.99,,2013-05-19 02:01:00,
2013-05-18 19:11:00,61.0,50.0,-100.00,WNW,295,8.0,11.0,66,-99.99,,,-99.99,,2013-05-19 02:11:00,
2013-05-18 19:21:00,60.0,49.0,-100.00,WNW,285,7.0,9.0,66,-99.99,,,-99.99,,2013-05-19 02:21:00,
2013-05-18 19:31:00,60.0,49.0,-100.00,WNW,289,7.0,10.0,67,-99.99,,,-99.99,,2013-05-19 02:31:00,
2013-05-18 19:42:00,59.0,48.0,-100.00,WNW,303,7.0,9.0,68,-99.99,,,-99.99,,2013-05-19 02:42:00,
2013-05-18 19:50:00,56.0,48.0,-100.00,NW,308,5.0,6.0,74,-99.99,,,-99.99,,2013-05-19 02:50:00,
2013-05-18 19:52:00,59.0,48.0,-100.00,WNW,303,7.0,9.0,68,-99.99,,,-99.99,,2013-05-19 02:52:00,
2013-05-18 20:01:00,59.0,48.0,-100.00,WNW,303,7.0,9.0,68,-99.99,,,-99.99,,2013-05-19 03:01:00,
2013-05-18 20:11:00,57.0,48.0,-100.00,WNW,287,6.0,8.0,73,-99.99,,,-99.99,,2013-05-19 03:11:00,
2013-05-18 20:21:00,56.0,48.0,-100.00,NW,308,5.0,6.0,74,-99.99,,,-99.99,,2013-05-19 03:21:00,
2013-05-18 20:33:00,56.0,48.0,-100.00,NW,308,5.0,6.0,74,-99.99,,,-99.99,,2013-05-19 03:33:00,
2013-05-18 20:42:00,56.0,48.0,-100.00,NW,308,5.0,6.0,74,-99.99,,,-99.99,,2013-05-19 03:42:00,
2013-05-18 21:02:00,55.0,48.0,-100.00,WSW,247,1.0,2.0,78,-99.99,,,-99.99,,2013-05-19 04:02:00,
2013-05-18 21:12:00,55.0,49.0,-100.00,SE,129,2.0,2.0,79,-99.99,,,-99.99,,2013-05-19 04:12:00,
2013-05-18 21:23:00,54.0,48.0,-100.00,ESE,112,2.0,3.0,80,-99.99,,,-99.99,,2013-05-19 04:23:00,
2013-05-18 21:33:00,54.0,48.0,-100.00,ESE,119,2.0,3.0,81,-99.99,,,-99.99,,2013-05-19 04:33:00,
2013-05-18 21:42:00,53.0,48.0,-100.00,ESE,120,3.0,4.0,82,-99.99,,,-99.99,,2013-05-19 04:42:00,
2013-05-18 21:52:00,53.0,48.0,-100.00,ESE,113,3.0,4.0,82,-99.99,,,-99.99,,2013-05-19 04:52:00,
2013-05-18 22:02:00,53.0,48.0,-100.00,ESE,113,3.0,4.0,82,-99.99,,,-99.99,,2013-05-19 05:02:00,
2013-05-18 22:12:00,53.0,47.0,-100.00,East,99,3.0,4.0,81,-99.99,,,-99.99,,2013-05-19 05:12:00,
2013-05-18 22:21:00,51.0,46.0,-100.00,SE,136,4.0,6.0,84,-99.99,,,-99.99,,2013-05-19 05:21:00,
2013-05-18 22:32:00,50.0,46.0,-100.00,SE,141,6.0,8.0,85,-99.99,,,-99.99,,2013-05-19 05:32:00,
2013-05-18 22:42:00,50.0,46.0,-100.00,SE,130,4.0,5.0,85,-99.99,,,-99.99,,2013-05-19 05:42:00,
2013-05-18 22:51:00,50.0,46.0,-100.00,SE,130,4.0,5.0,85,-99.99,,,-99.99,,2013-05-19 05:51:00,
2013-05-18 23:02:00,50.0,46.0,-100.00,SE,130,4.0,5.0,85,-99.99,,,-99.99,,2013-05-19 06:02:00,
2013-05-18 23:11:00,51.0,46.0,-100.00,SE,126,4.0,4.0,84,-99.99,,,-99.99,,2013-05-19 06:11:00,
2013-05-18 23:21:00,51.0,46.0,-100.00,SE,126,4.0,4.0,84,-99.99,,,-99.99,,2013-05-19 06:21:00,
2013-05-18 23:32:00,50.0,45.0,-100.00,ESE,123,4.0,5.0,84,-99.99,,,-99.99,,2013-05-19 06:32:00,
2013-05-18 23:42:00,50.0,46.0,-100.00,ESE,120,4.0,5.0,85,-99.99,,,-99.99,,2013-05-19 06:42:00,
2013-05-18 23:51:00,50.0,46.0,-100.00,ESE,120,4.0,5.0,85,-99.99,,,-99.99,,2013-05-19 06:51:00,